Time;durP1;ratioP1;P1;durP2;ratioP2;P2;SDS_P1;SDS_P2;PMS_P1;PMS_P2;Temp;Humidity;BMP_temperature;BMP_pressure;BME280_temperature;BME280_humidity;BME280_pressure;Samples;Min_cycle;Max_cycle;Signal;HPM_P1;HPM_P2
2024/04/11 00:02:04;;;;;;;21.75;5.32;;;;;;;;;;5429407;26;20076;-44
2024/04/11 00:04:31;;;;;;;14.43;4.82;;;;;;;;;;5438351;26;20769;-44
2024/04/11 00:06:58;;;;;;;12.68;4.55;;;;;;;;;;5435447;26;20042;-45
2024/04/11 00:09:25;;;;;;;16.33;4.78;;;;;;;;;;5436649;26;20004;-44
2024/04/11 00:11:52;;;;;;;15.75;5.20;;;;;;;;;;5441988;26;20010;-44
2024/04/11 00:14:19;;;;;;;14.68;5.32;;;;;;;;;;5447669;26;19995;-44
2024/04/11 00:16:46;;;;;;;15.88;5.53;;;;;;;;;;5425162;26;19995;-44
2024/04/11 00:19:13;;;;;;;17.75;5.45;;;;;;;;;;5449842;26;20448;-44
2024/04/11 00:21:40;;;;;;;25.10;6.13;;;;;;;;;;5425543;26;20009;-44
2024/04/11 00:24:07;;;;;;;19.08;6.55;;;;;;;;;;5431218;26;19996;-46
2024/04/11 00:26:35;;;;;;;21.38;6.68;;;;;;;;;;5420629;26;20363;-45
2024/04/11 00:29:03;;;;;;;34.60;7.65;;;;;;;;;;5445936;26;20007;-47
2024/04/11 00:31:31;;;;;;;21.70;6.40;;;;;;;;;;5440017;26;20436;-45
2024/04/11 00:34:12;;;;;;;26.98;7.78;;;;;;;;;;5425279;26;20461;-45
2024/04/11 00:36:41;;;;;;;31.80;8.50;;;;;;;;;;5425582;26;20030;-44
2024/04/11 00:39:18;;;;;;;27.63;8.38;;;;;;;;;;5441053;26;20810;-45
2024/04/11 00:41:45;;;;;;;29.02;6.90;;;;;;;;;;5448244;26;20003;-45
2024/04/11 00:44:13;;;;;;;34.10;7.93;;;;;;;;;;5453056;26;19999;-44
2024/04/11 00:46:40;;;;;;;33.88;7.63;;;;;;;;;;5448133;26;19999;-45
2024/04/11 00:49:07;;;;;;;30.08;8.18;;;;;;;;;;5420335;26;20015;-44
2024/04/11 00:51:34;;;;;;;34.83;7.70;;;;;;;;;;5436014;26;20010;-44
2024/04/11 00:54:02;;;;;;;35.33;9.23;;;;;;;;;;5429681;26;20080;-45
2024/04/11 00:56:29;;;;;;;38.70;8.70;;;;;;;;;;5429988;26;20407;-44
2024/04/11 00:58:56;;;;;;;28.83;8.48;;;;;;;;;;5437358;26;19999;-44
2024/04/11 01:01:25;;;;;;;30.17;8.50;;;;;;;;;;5446681;26;20000;-45
2024/04/11 01:03:53;;;;;;;40.42;9.70;;;;;;;;;;5440438;26;20010;-44
2024/04/11 01:06:20;;;;;;;37.05;9.52;;;;;;;;;;5451879;26;19999;-45
2024/04/11 01:08:47;;;;;;;37.85;10.02;;;;;;;;;;5425613;26;19996;-43
2024/04/11 01:11:14;;;;;;;37.65;9.57;;;;;;;;;;5444456;26;19994;-46
2024/04/11 01:13:41;;;;;;;39.50;10.20;;;;;;;;;;5451659;26;20379;-43
2024/04/11 01:16:08;;;;;;;38.30;9.68;;;;;;;;;;5446017;26;20003;-44
2024/04/11 01:18:35;;;;;;;30.77;8.77;;;;;;;;;;5439549;26;20009;-44
2024/04/11 01:21:02;;;;;;;41.58;9.27;;;;;;;;;;5421109;26;20007;-44
2024/04/11 01:23:29;;;;;;;40.28;10.18;;;;;;;;;;5421391;26;20006;-44
2024/04/11 01:25:56;;;;;;;35.60;9.35;;;;;;;;;;5428778;26;19999;-44
2024/04/11 01:28:23;;;;;;;35.00;9.27;;;;;;;;;;5452677;26;20418;-44
2024/04/11 01:30:51;;;;;;;31.10;8.63;;;;;;;;;;5416958;26;20464;-45
2024/04/11 01:33:21;;;;;;;29.35;8.18;;;;;;;;;;5440571;26;20030;-46
2024/04/11 01:35:48;;;;;;;31.02;8.73;;;;;;;;;;5416740;26;20388;-44
2024/04/11 01:38:15;;;;;;;40.10;9.48;;;;;;;;;;5416345;26;20338;-45
2024/04/11 01:40:46;;;;;;;34.10;9.05;;;;;;;;;;5426864;26;20013;-44
2024/04/11 01:43:14;;;;;;;35.15;9.05;;;;;;;;;;5432901;26;20007;-44
2024/04/11 01:45:41;;;;;;;30.02;8.90;;;;;;;;;;5436897;26;20013;-44
2024/04/11 01:48:08;;;;;;;28.02;8.23;;;;;;;;;;5436856;26;20002;-44
2024/04/11 01:50:41;;;;;;;33.05;8.65;;;;;;;;;;5432077;26;20000;-44
2024/04/11 01:53:08;;;;;;;32.40;8.40;;;;;;;;;;5416330;26;20023;-44
2024/04/11 01:55:36;;;;;;;35.03;8.43;;;;;;;;;;5416283;26;19999;-43
2024/04/11 01:58:04;;;;;;;32.53;8.27;;;;;;;;;;5427005;26;20482;-45
2024/04/11 02:00:36;;;;;;;37.70;8.63;;;;;;;;;;5438961;26;20027;-44
2024/04/11 02:03:04;;;;;;;39.70;8.38;;;;;;;;;;5443113;26;20017;-43
2024/04/11 02:05:34;;;;;;;34.75;8.32;;;;;;;;;;5452463;26;20458;-43
2024/04/11 02:08:02;;;;;;;38.33;9.10;;;;;;;;;;5442523;26;20084;-44
2024/04/11 02:10:29;;;;;;;34.83;9.27;;;;;;;;;;5424389;26;20000;-44
2024/04/11 02:12:57;;;;;;;30.40;8.77;;;;;;;;;;5422137;26;20854;-44
2024/04/11 02:15:24;;;;;;;34.92;8.85;;;;;;;;;;5442610;26;20010;-44
2024/04/11 02:17:51;;;;;;;34.40;8.18;;;;;;;;;;5439426;26;20004;-44
2024/04/11 02:20:20;;;;;;;36.13;8.48;;;;;;;;;;5449970;26;19999;-44
2024/04/11 02:22:50;;;;;;;37.65;8.85;;;;;;;;;;5443953;26;19999;-44
2024/04/11 02:25:17;;;;;;;32.38;8.18;;;;;;;;;;5449281;26;20439;-45
2024/04/11 02:27:44;;;;;;;35.17;8.65;;;;;;;;;;5450202;26;20467;-44
2024/04/11 02:30:11;;;;;;;36.95;8.50;;;;;;;;;;5449994;26;20013;-44
2024/04/11 02:32:42;;;;;;;42.08;9.43;;;;;;;;;;5449587;26;19999;-44
2024/04/11 02:35:11;;;;;;;29.33;9.02;;;;;;;;;;5449599;26;20686;-44
2024/04/11 02:37:39;;;;;;;28.88;8.43;;;;;;;;;;5449151;26;20014;-44
2024/04/11 02:40:09;;;;;;;30.15;8.32;;;;;;;;;;5449970;26;19999;-44
2024/04/11 02:42:39;;;;;;;33.00;8.10;;;;;;;;;;5449217;26;20007;-44
2024/04/11 02:45:14;;;;;;;32.17;7.85;;;;;;;;;;5450678;26;20006;-44
2024/04/11 02:47:42;;;;;;;27.70;7.85;;;;;;;;;;5445907;26;20003;-44
2024/04/11 02:50:16;;;;;;;28.80;7.90;;;;;;;;;;5450975;26;20010;-44
2024/04/11 02:52:43;;;;;;;26.13;7.22;;;;;;;;;;5446260;26;20006;-44
2024/04/11 02:55:14;;;;;;;26.30;7.90;;;;;;;;;;5451910;26;19998;-43
2024/04/11 02:57:45;;;;;;;26.45;7.85;;;;;;;;;;5451523;26;20403;-44
2024/04/11 03:00:16;;;;;;;21.50;7.10;;;;;;;;;;5451813;26;20517;-44
2024/04/11 03:02:43;;;;;;;24.87;7.07;;;;;;;;;;5450351;26;19999;-44
2024/04/11 03:05:12;;;;;;;25.88;7.00;;;;;;;;;;5451739;26;20011;-44
2024/04/11 03:07:42;;;;;;;31.98;7.90;;;;;;;;;;5451267;26;20014;-43
2024/04/11 03:10:09;;;;;;;24.80;7.45;;;;;;;;;;5451342;26;20018;-44
2024/04/11 03:12:36;;;;;;;21.67;6.97;;;;;;;;;;5451565;26;20011;-44
2024/04/11 03:15:04;;;;;;;22.27;7.35;;;;;;;;;;5451449;26;19999;-43
2024/04/11 03:17:33;;;;;;;25.40;7.55;;;;;;;;;;5451424;26;19999;-44
2024/04/11 03:20:00;;;;;;;21.63;6.90;;;;;;;;;;5451161;26;20340;-44
2024/04/11 03:22:27;;;;;;;19.70;7.38;;;;;;;;;;5451495;26;20330;-44
2024/04/11 03:24:54;;;;;;;23.40;7.15;;;;;;;;;;5419548;26;20006;-44
2024/04/11 03:27:21;;;;;;;27.58;7.40;;;;;;;;;;5451238;26;20030;-43
2024/04/11 03:29:48;;;;;;;21.98;7.22;;;;;;;;;;5451364;26;20072;-44
2024/04/11 03:32:16;;;;;;;20.83;7.25;;;;;;;;;;5451246;26;20017;-44
2024/04/11 03:34:43;;;;;;;21.80;7.05;;;;;;;;;;5451274;26;20021;-44
2024/04/11 03:37:10;;;;;;;25.38;6.82;;;;;;;;;;5450937;26;20017;-45
2024/04/11 03:39:38;;;;;;;21.67;6.68;;;;;;;;;;5451229;26;20078;-44
2024/04/11 03:42:07;;;;;;;22.00;7.20;;;;;;;;;;5450890;26;20017;-43
2024/04/11 03:44:35;;;;;;;15.68;5.93;;;;;;;;;;5450841;26;20018;-44
2024/04/11 03:47:05;;;;;;;18.55;6.30;;;;;;;;;;5450654;26;19999;-44
2024/04/11 03:49:31;;;;;;;22.83;6.57;;;;;;;;;;5450996;26;20010;-44
2024/04/11 03:51:58;;;;;;;20.42;6.65;;;;;;;;;;5450619;26;20371;-44
2024/04/11 03:54:27;;;;;;;20.52;6.57;;;;;;;;;;5450621;26;20452;-44
2024/04/11 03:56:54;;;;;;;21.52;6.60;;;;;;;;;;5450462;26;20009;-44
2024/04/11 03:59:21;;;;;;;23.35;6.93;;;;;;;;;;5450760;26;19999;-44
2024/04/11 04:01:48;;;;;;;19.80;6.75;;;;;;;;;;5450645;26;20011;-44
2024/04/11 04:04:19;;;;;;;17.90;6.53;;;;;;;;;;5450746;26;20336;-44
2024/04/11 04:06:46;;;;;;;19.48;6.63;;;;;;;;;;5450295;26;20449;-44
2024/04/11 04:09:15;;;;;;;21.17;6.25;;;;;;;;;;5450373;26;20002;-44
2024/04/11 04:11:42;;;;;;;16.40;6.55;;;;;;;;;;5450452;26;20003;-44
2024/04/11 04:14:09;;;;;;;15.68;6.35;;;;;;;;;;5451602;26;20002;-44
2024/04/11 04:16:38;;;;;;;17.90;6.40;;;;;;;;;;5422354;26;20372;-44
2024/04/11 04:19:05;;;;;;;21.20;6.20;;;;;;;;;;5454271;26;20733;-44
2024/04/11 04:21:33;;;;;;;16.52;6.05;;;;;;;;;;5421497;26;19999;-43
2024/04/11 04:24:02;;;;;;;25.67;6.88;;;;;;;;;;5418411;26;20007;-43
2024/04/11 04:26:33;;;;;;;17.10;6.43;;;;;;;;;;5417816;26;20068;-43
2024/04/11 04:29:00;;;;;;;19.45;6.28;;;;;;;;;;5416979;26;19999;-44
2024/04/11 04:31:29;;;;;;;15.07;5.57;;;;;;;;;;5418072;26;20014;-44
2024/04/11 04:33:57;;;;;;;15.02;6.15;;;;;;;;;;5439903;26;19994;-43
2024/04/11 04:36:28;;;;;;;13.32;6.03;;;;;;;;;;5453812;26;19999;-44
2024/04/11 04:38:59;;;;;;;17.27;5.88;;;;;;;;;;5453617;26;20551;-43
2024/04/11 04:41:29;;;;;;;16.02;6.93;;;;;;;;;;5453821;26;20003;-43
2024/04/11 04:44:00;;;;;;;14.73;5.80;;;;;;;;;;5453876;26;20535;-43
2024/04/11 04:46:32;;;;;;;15.85;6.05;;;;;;;;;;5453480;26;20760;-43
2024/04/11 04:49:02;;;;;;;15.77;5.80;;;;;;;;;;5453634;26;20003;-43
2024/04/11 04:51:33;;;;;;;16.02;5.90;;;;;;;;;;5453809;26;20013;-43
2024/04/11 04:54:01;;;;;;;17.15;6.15;;;;;;;;;;5453726;26;20003;-43
2024/04/11 04:56:29;;;;;;;14.95;5.35;;;;;;;;;;5453467;26;19999;-44
2024/04/11 04:58:58;;;;;;;13.88;5.53;;;;;;;;;;5453566;26;20017;-44
2024/04/11 05:01:26;;;;;;;16.55;6.07;;;;;;;;;;5453516;26;20003;-43
2024/04/11 05:03:55;;;;;;;13.98;5.65;;;;;;;;;;5453457;26;20083;-43
2024/04/11 05:06:22;;;;;;;11.70;5.53;;;;;;;;;;5453335;26;20481;-43
2024/04/11 05:08:53;;;;;;;16.30;6.07;;;;;;;;;;5453771;26;20074;-43
2024/04/11 05:11:21;;;;;;;13.85;6.13;;;;;;;;;;5451479;26;20010;-43
2024/04/11 05:13:49;;;;;;;16.70;5.80;;;;;;;;;;5453309;26;20014;-43
2024/04/11 05:16:21;;;;;;;15.15;5.78;;;;;;;;;;5453164;26;19999;-44
2024/04/11 05:18:51;;;;;;;15.23;5.60;;;;;;;;;;5453346;26;20015;-43
2024/04/11 05:21:23;;;;;;;19.95;6.47;;;;;;;;;;5453192;26;20039;-43
2024/04/11 05:23:50;;;;;;;15.48;5.35;;;;;;;;;;5453222;26;20368;-44
2024/04/11 05:26:23;;;;;;;15.30;5.68;;;;;;;;;;5452262;26;20463;-45
2024/04/11 05:28:51;;;;;;;13.50;5.25;;;;;;;;;;5453065;26;20075;-43
2024/04/11 05:31:25;;;;;;;15.23;5.75;;;;;;;;;;5453194;26;20348;-44
2024/04/11 05:33:53;;;;;;;14.90;5.75;;;;;;;;;;5422480;26;20000;-44
2024/04/11 05:36:24;;;;;;;13.80;5.50;;;;;;;;;;5417326;26;20450;-44
2024/04/11 05:38:54;;;;;;;14.33;5.97;;;;;;;;;;5417199;26;20070;-44
2024/04/11 05:41:22;;;;;;;14.32;5.55;;;;;;;;;;5417055;26;20280;-44
2024/04/11 05:43:49;;;;;;;13.23;5.32;;;;;;;;;;5417233;26;20000;-45
2024/04/11 05:46:20;;;;;;;11.07;5.13;;;;;;;;;;5416924;26;20014;-43
2024/04/11 05:48:50;;;;;;;16.02;5.53;;;;;;;;;;5417625;26;20011;-44
2024/04/11 05:51:18;;;;;;;14.32;5.97;;;;;;;;;;5417194;26;20066;-44
2024/04/11 05:53:46;;;;;;;11.85;5.80;;;;;;;;;;5416984;26;20149;-44
2024/04/11 05:56:13;;;;;;;12.43;5.63;;;;;;;;;;5385347;26;20434;-44
2024/04/11 05:58:40;;;;;;;13.93;5.28;;;;;;;;;;5416871;26;20004;-44
2024/04/11 06:01:13;;;;;;;12.50;5.80;;;;;;;;;;5414502;26;20097;-44
2024/04/11 06:03:41;;;;;;;12.27;5.97;;;;;;;;;;5416552;26;20039;-45
2024/04/11 06:06:11;;;;;;;11.52;4.95;;;;;;;;;;5416699;26;20718;-44
2024/04/11 06:08:38;;;;;;;14.50;4.82;;;;;;;;;;5416517;26;20011;-44
2024/04/11 06:11:06;;;;;;;11.73;5.03;;;;;;;;;;5416789;26;20007;-44
2024/04/11 06:13:33;;;;;;;13.88;4.90;;;;;;;;;;5416300;26;20013;-45
2024/04/11 06:16:01;;;;;;;18.67;5.65;;;;;;;;;;5416456;26;20038;-44
2024/04/11 06:18:30;;;;;;;14.07;4.97;;;;;;;;;;5416815;26;20003;-44
2024/04/11 06:20:58;;;;;;;15.10;5.47;;;;;;;;;;5416176;26;20007;-44
2024/04/11 06:23:26;;;;;;;14.63;5.25;;;;;;;;;;5416186;26;19999;-43
2024/04/11 06:25:54;;;;;;;16.92;5.22;;;;;;;;;;5416156;26;20011;-44
2024/04/11 06:28:21;;;;;;;14.07;5.00;;;;;;;;;;5416453;26;20011;-43
2024/04/11 06:30:51;;;;;;;12.88;5.97;;;;;;;;;;5384754;26;20742;-43
2024/04/11 06:33:18;;;;;;;14.40;5.65;;;;;;;;;;5438231;26;20013;-43
2024/04/11 06:35:51;;;;;;;9.68;5.20;;;;;;;;;;5420238;26;19998;-43
2024/04/11 06:38:20;;;;;;;13.40;5.43;;;;;;;;;;5450521;26;20075;-43
2024/04/11 06:40:52;;;;;;;12.05;4.80;;;;;;;;;;5452195;26;20479;-44
2024/04/11 06:43:20;;;;;;;13.98;5.75;;;;;;;;;;5452206;26;20349;-44
2024/04/11 06:45:51;;;;;;;12.20;5.15;;;;;;;;;;5451637;26;20460;-44
2024/04/11 06:48:21;;;;;;;14.93;5.13;;;;;;;;;;5451840;26;20067;-44
2024/04/11 06:50:49;;;;;;;14.43;5.03;;;;;;;;;;5451845;26;20384;-43
2024/04/11 06:53:17;;;;;;;13.32;5.18;;;;;;;;;;5451653;26;20039;-44
2024/04/11 06:55:46;;;;;;;12.10;4.93;;;;;;;;;;5452020;26;20002;-44
2024/04/11 06:58:20;;;;;;;15.35;5.30;;;;;;;;;;5451737;26;20014;-44
2024/04/11 07:00:58;;;;;;;10.50;4.55;;;;;;;;;;5451506;26;20003;-44
2024/04/11 07:03:26;;;;;;;11.38;5.10;;;;;;;;;;5451435;26;19999;-43
2024/04/11 07:05:57;;;;;;;12.23;5.30;;;;;;;;;;5451569;26;20002;-44
2024/04/11 07:08:33;;;;;;;13.68;5.30;;;;;;;;;;5451412;26;20338;-44
2024/04/11 07:11:48;;;;;;;13.57;5.40;;;;;;;;;;5451823;26;20100;-44
2024/04/11 07:13:50;;;;;;;12.38;5.40;;;;;;;;;;5432254;26;19995;-44
2024/04/11 07:16:29;;;;;;;10.10;4.70;;;;;;;;;;5451290;26;20014;-43
2024/04/11 07:18:57;;;;;;;10.93;4.95;;;;;;;;;;5451423;26;20007;-43
2024/04/11 07:21:30;;;;;;;10.77;4.40;;;;;;;;;;5451128;26;20453;-44
2024/04/11 07:24:00;;;;;;;9.98;4.50;;;;;;;;;;5451304;26;20003;-43
2024/04/11 07:26:31;;;;;;;12.48;4.90;;;;;;;;;;5451394;26;20080;-43
2024/04/11 07:29:02;;;;;;;9.40;4.38;;;;;;;;;;5415539;26;20072;-44
2024/04/11 07:31:30;;;;;;;12.82;4.75;;;;;;;;;;5415271;26;20009;-44
2024/04/11 07:33:58;;;;;;;10.75;4.85;;;;;;;;;;5415130;26;20010;-44
2024/04/11 07:36:26;;;;;;;11.57;4.82;;;;;;;;;;5415101;26;20004;-44
2024/04/11 07:38:54;;;;;;;10.13;4.18;;;;;;;;;;5415090;26;20348;-44
2024/04/11 07:41:23;;;;;;;10.02;4.30;;;;;;;;;;5415184;26;20014;-43
2024/04/11 07:43:57;;;;;;;8.55;4.53;;;;;;;;;;5414999;26;20010;-44
2024/04/11 07:46:33;;;;;;;9.07;4.35;;;;;;;;;;5414738;26;20065;-44
2024/04/11 07:49:07;;;;;;;13.68;4.57;;;;;;;;;;5415819;26;19999;-44
2024/04/11 07:51:37;;;;;;;9.55;4.30;;;;;;;;;;5418421;26;20018;-44
2024/04/11 07:54:04;;;;;;;8.20;3.80;;;;;;;;;;5418480;26;20040;-44
2024/04/11 07:56:34;;;;;;;9.52;4.22;;;;;;;;;;5418023;26;20010;-44
2024/04/11 07:59:02;;;;;;;10.63;4.18;;;;;;;;;;5418199;26;20027;-44
2024/04/11 08:01:34;;;;;;;10.05;4.10;;;;;;;;;;5418285;26;20445;-44
2024/04/11 08:04:02;;;;;;;8.35;4.18;;;;;;;;;;5418253;26;20034;-44
2024/04/11 08:06:30;;;;;;;10.50;4.43;;;;;;;;;;5418310;26;20010;-44
2024/04/11 08:08:58;;;;;;;9.13;3.97;;;;;;;;;;5418031;26;20003;-44
2024/04/11 08:11:29;;;;;;;7.90;3.58;;;;;;;;;;5418270;26;20011;-44
2024/04/11 08:13:59;;;;;;;10.50;3.92;;;;;;;;;;5418219;26;20004;-44
2024/04/11 08:16:29;;;;;;;7.57;3.70;;;;;;;;;;5418123;26;20047;-44
2024/04/11 08:18:56;;;;;;;12.40;3.92;;;;;;;;;;5418265;26;20014;-44
2024/04/11 08:21:25;;;;;;;6.90;3.22;;;;;;;;;;5418007;26;19999;-44
2024/04/11 08:23:52;;;;;;;7.50;3.40;;;;;;;;;;5418122;26;20011;-44
2024/04/11 08:26:21;;;;;;;7.53;3.80;;;;;;;;;;5417749;26;20030;-44
2024/04/11 08:28:48;;;;;;;7.32;3.38;;;;;;;;;;5417751;26;20040;-44
2024/04/11 08:31:15;;;;;;;6.72;3.17;;;;;;;;;;5417993;26;20000;-44
2024/04/11 08:33:42;;;;;;;8.82;3.80;;;;;;;;;;5417889;26;20003;-45
2024/04/11 08:36:10;;;;;;;8.25;3.60;;;;;;;;;;5417765;26;20106;-44
2024/04/11 08:38:40;;;;;;;7.60;3.92;;;;;;;;;;5417878;26;20016;-44
2024/04/11 08:41:20;;;;;;;7.97;3.53;;;;;;;;;;5417814;26;19999;-44
2024/04/11 08:43:47;;;;;;;10.38;3.30;;;;;;;;;;5417977;26;20003;-44
2024/04/11 08:46:14;;;;;;;7.63;3.60;;;;;;;;;;5417617;26;20000;-44
2024/04/11 08:48:42;;;;;;;6.88;3.67;;;;;;;;;;5417837;26;20007;-44
2024/04/11 08:51:09;;;;;;;8.88;3.28;;;;;;;;;;5417611;26;20076;-45
2024/04/11 08:53:39;;;;;;;5.80;3.13;;;;;;;;;;5417337;26;20003;-44
2024/04/11 08:56:09;;;;;;;7.25;3.70;;;;;;;;;;5417560;26;20534;-44
2024/04/11 08:58:41;;;;;;;6.78;3.30;;;;;;;;;;5417942;26;20076;-44
2024/04/11 09:01:08;;;;;;;;;;;;;;;;;;5416612;26;19995;-44
2024/04/11 09:03:35;;;;;;;7.88;3.17;;;;;;;;;;5416797;26;19931;-44
2024/04/11 09:06:04;;;;;;;5.47;2.70;;;;;;;;;;5416655;26;20072;-44
2024/04/11 09:08:32;;;;;;;7.25;3.53;;;;;;;;;;5416530;26;20011;-43
2024/04/11 09:11:00;;;;;;;7.55;3.22;;;;;;;;;;5416818;26;20007;-43
2024/04/11 09:13:28;;;;;;;6.18;2.75;;;;;;;;;;5381408;26;20008;-43
2024/04/11 09:16:04;;;;;;;7.70;2.78;;;;;;;;;;5381835;26;20001;-45
2024/04/11 09:18:31;;;;;;;6.32;2.88;;;;;;;;;;5381588;26;20000;-43
2024/04/11 09:21:05;;;;;;;5.60;2.95;;;;;;;;;;5394210;26;20014;-44
2024/04/11 09:23:44;;;;;;;5.57;2.45;;;;;;;;;;5417124;26;20018;-43
2024/04/11 09:26:11;;;;;;;6.45;3.00;;;;;;;;;;5417210;26;20031;-43
2024/04/11 09:28:38;;;;;;;5.07;3.00;;;;;;;;;;5416408;26;20043;-43
2024/04/11 09:31:06;;;;;;;4.50;2.50;;;;;;;;;;5416188;26;20094;-44
2024/04/11 09:33:39;;;;;;;5.53;2.55;;;;;;;;;;5416225;26;19999;-44
2024/04/11 09:36:10;;;;;;;4.25;2.80;;;;;;;;;;5414504;26;20003;-43
2024/04/11 09:38:38;;;;;;;6.93;3.05;;;;;;;;;;5415173;26;20084;-44
2024/04/11 09:41:11;;;;;;;6.60;2.75;;;;;;;;;;5415049;26;20050;-44
2024/04/11 09:43:41;;;;;;;5.88;2.50;;;;;;;;;;5415742;26;20004;-44
2024/04/11 09:46:17;;;;;;;6.95;3.10;;;;;;;;;;5416489;26;20083;-44
2024/04/11 09:48:47;;;;;;;7.90;3.22;;;;;;;;;;5414444;26;20013;-44
2024/04/11 09:51:15;;;;;;;5.90;2.70;;;;;;;;;;5416638;26;20000;-44
2024/04/11 09:53:43;;;;;;;8.07;3.10;;;;;;;;;;5416372;26;19999;-44
2024/04/11 09:56:15;;;;;;;9.00;3.00;;;;;;;;;;5416614;26;20035;-44
2024/04/11 09:58:43;;;;;;;8.98;3.03;;;;;;;;;;5416595;26;20048;-44
2024/04/11 10:01:40;;;;;;;6.13;2.90;;;;;;;;;;5416770;26;20000;-44
2024/04/11 10:04:42;;;;;;;7.95;2.80;;;;;;;;;;5402369;26;20006;-44
2024/04/11 10:07:04;;;;;;;6.65;3.15;;;;;;;;;;5409166;26;20013;-44
2024/04/11 10:09:31;;;;;;;8.85;2.97;;;;;;;;;;5415905;26;19995;-44
2024/04/11 10:12:02;;;;;;;8.38;2.90;;;;;;;;;;5416364;26;19999;-43
2024/04/11 10:14:32;;;;;;;6.25;2.78;;;;;;;;;;5416647;26;20004;-44
2024/04/11 10:17:01;;;;;;;5.95;2.70;;;;;;;;;;5390628;26;20018;-44
2024/04/11 10:19:31;;;;;;;7.22;2.67;;;;;;;;;;5379961;26;19996;-44
2024/04/11 10:22:09;;;;;;;8.27;2.78;;;;;;;;;;5404753;26;19999;-45
2024/04/11 10:24:37;;;;;;;10.15;2.65;;;;;;;;;;5415261;26;20004;-42
2024/04/11 10:27:19;;;;;;;9.70;2.60;;;;;;;;;;5413987;26;20007;-44
2024/04/11 10:29:50;;;;;;;6.82;2.60;;;;;;;;;;5416271;26;20011;-45
2024/04/11 10:32:26;;;;;;;9.80;2.50;;;;;;;;;;5421777;26;20014;-46
2024/04/11 10:34:57;;;;;;;9.43;2.60;;;;;;;;;;5451818;26;20007;-44
2024/04/11 10:37:25;;;;;;;5.45;2.30;;;;;;;;;;5450071;26;20345;-42
2024/04/11 10:39:57;;;;;;;9.35;2.55;;;;;;;;;;5451663;26;20014;-40
2024/04/11 10:43:11;;;;;;;;;;;;;;;;;;5452836;26;19999;-43
2024/04/11 10:45:11;;;;;;;7.07;2.20;;;;;;;;;;5451314;26;19932;-46
2024/04/11 10:47:41;;;;;;;10.00;2.50;;;;;;;;;;5449166;26;19995;-43
2024/04/11 10:50:09;;;;;;;6.63;2.60;;;;;;;;;;5450233;26;20575;-43
2024/04/11 10:52:37;;;;;;;8.23;2.70;;;;;;;;;;5450552;26;20382;-45
2024/04/11 10:55:12;;;;;;;9.27;2.25;;;;;;;;;;5450404;26;20477;-45
2024/04/11 10:57:45;;;;;;;7.50;2.90;;;;;;;;;;5449102;26;19999;-44
2024/04/11 11:00:22;;;;;;;6.35;2.35;;;;;;;;;;5421548;26;20003;-45
2024/04/11 11:02:50;;;;;;;8.95;2.30;;;;;;;;;;5449534;26;20009;-44
2024/04/11 11:05:18;;;;;;;7.63;2.63;;;;;;;;;;5449939;26;20441;-42
2024/04/11 11:07:44;;;;;;;6.22;2.30;;;;;;;;;;5449483;26;20071;-48
2024/04/11 11:10:18;;;;;;;8.98;2.10;;;;;;;;;;5450762;26;19999;-44
2024/04/11 11:12:48;;;;;;;8.68;2.63;;;;;;;;;;5450351;26;20079;-44
2024/04/11 11:15:16;;;;;;;9.45;2.47;;;;;;;;;;5450952;26;20029;-43
2024/04/11 11:17:45;;;;;;;8.15;2.63;;;;;;;;;;5449970;26;20002;-44
2024/04/11 11:20:13;;;;;;;10.02;2.88;;;;;;;;;;5448841;26;20076;-44
2024/04/11 11:22:41;;;;;;;7.38;2.30;;;;;;;;;;5450128;26;20006;-45
2024/04/11 11:25:11;;;;;;;6.70;2.42;;;;;;;;;;5449435;26;19999;-44
2024/04/11 11:27:38;;;;;;;7.55;2.40;;;;;;;;;;5450251;26;20777;-44
2024/04/11 11:30:06;;;;;;;10.52;2.67;;;;;;;;;;5451362;26;19999;-44
2024/04/11 11:32:36;;;;;;;6.03;2.50;;;;;;;;;;5440409;26;20007;-45
2024/04/11 11:35:05;;;;;;;8.63;2.28;;;;;;;;;;5415088;26;20022;-46
2024/04/11 11:37:32;;;;;;;7.57;2.30;;;;;;;;;;5415399;26;20003;-44
2024/04/11 11:42:46;;;;;;;7.60;2.30;;;;;;;;;;5415300;26;20014;-45
2024/04/11 11:45:26;;;;;;;6.90;2.45;;;;;;;;;;5414408;26;19999;-44
2024/04/11 11:47:57;;;;;;;7.32;2.20;;;;;;;;;;5414796;26;19999;-45
2024/04/11 11:50:35;;;;;;;4.20;1.98;;;;;;;;;;5414727;26;20015;-45
2024/04/11 11:53:49;;;;;;;11.30;2.17;;;;;;;;;;5414693;26;20035;-45
2024/04/11 11:55:58;;;;;;;7.75;1.92;;;;;;;;;;5395896;26;20007;-45
2024/04/11 11:58:25;;;;;;;8.95;2.90;;;;;;;;;;5414722;26;19999;-46
2024/04/11 12:00:59;;;;;;;4.57;1.80;;;;;;;;;;5403884;26;19995;-44
2024/04/11 12:03:30;;;;;;;5.80;2.30;;;;;;;;;;5413697;26;20014;-44
2024/04/11 12:06:04;;;;;;;4.88;1.80;;;;;;;;;;5413798;26;19999;-44
2024/04/11 12:08:37;;;;;;;6.13;2.15;;;;;;;;;;5382476;26;20011;-44
2024/04/11 12:13:45;;;;;;;7.63;1.88;;;;;;;;;;5414286;26;20011;-45
2024/04/11 12:16:15;;;;;;;9.50;2.67;;;;;;;;;;5413111;26;20445;-44
2024/04/11 12:18:43;;;;;;;9.40;2.47;;;;;;;;;;5413635;26;20003;-45
2024/04/11 12:21:13;;;;;;;8.63;2.33;;;;;;;;;;5413655;26;20012;-47
2024/04/11 12:23:44;;;;;;;7.50;2.53;;;;;;;;;;5413451;26;20003;-41
2024/04/11 12:26:12;;;;;;;9.57;2.33;;;;;;;;;;5414120;26;20011;-43
2024/04/11 12:28:45;;;;;;;9.30;2.00;;;;;;;;;;5414115;26;20054;-45
2024/04/11 12:31:21;;;;;;;6.50;2.30;;;;;;;;;;5413045;26;19999;-44
2024/04/11 12:33:51;;;;;;;6.38;2.10;;;;;;;;;;5408987;26;20010;-45
2024/04/11 12:39:12;;;;;;;9.02;2.15;;;;;;;;;;5417931;26;20403;-44
2024/04/11 12:41:41;;;;;;;6.68;1.90;;;;;;;;;;5417867;26;20018;-44
2024/04/11 12:44:24;;;;;;;5.13;1.83;;;;;;;;;;5417808;26;20458;-44
2024/04/11 12:46:55;;;;;;;6.00;2.22;;;;;;;;;;5416021;26;20011;-44
2024/04/11 12:49:35;;;;;;;10.13;2.15;;;;;;;;;;5416953;26;20484;-44
2024/04/11 12:52:03;;;;;;;6.65;1.88;;;;;;;;;;5417163;26;20043;-44
2024/04/11 12:54:33;;;;;;;6.57;1.90;;;;;;;;;;5417397;26;20019;-44
2024/04/11 12:57:04;;;;;;;4.68;1.73;;;;;;;;;;5417423;26;20018;-44
2024/04/11 12:59:31;;;;;;;7.70;2.03;;;;;;;;;;5417120;26;19999;-45
2024/04/11 13:01:59;;;;;;;6.45;1.77;;;;;;;;;;5417204;26;20003;-45
2024/04/11 13:04:29;;;;;;;7.70;2.17;;;;;;;;;;5417520;26;20337;-46
2024/04/11 13:07:10;;;;;;;5.88;2.10;;;;;;;;;;5386053;26;20413;-45
2024/04/11 13:12:43;;;;;;;10.02;1.75;;;;;;;;;;5339185;26;20003;-47
2024/04/11 13:15:19;;;;;;;6.72;2.00;;;;;;;;;;5416756;26;20522;-44
2024/04/11 13:17:52;;;;;;;10.98;1.95;;;;;;;;;;5417192;26;20457;-45
2024/04/11 13:20:27;;;;;;;6.93;1.77;;;;;;;;;;5416534;26;20003;-45
2024/04/11 13:23:09;;;;;;;8.55;1.85;;;;;;;;;;5417159;26;20004;-45
2024/04/11 13:25:37;;;;;;;5.95;1.75;;;;;;;;;;5417049;26;20003;-44
2024/04/11 13:28:05;;;;;;;8.63;1.95;;;;;;;;;;5417292;26;20528;-44
2024/04/11 13:30:33;;;;;;;4.90;1.33;;;;;;;;;;5417078;26;19999;-44
2024/04/11 13:33:03;;;;;;;6.88;1.52;;;;;;;;;;5416832;26;20003;-45
2024/04/11 13:35:38;;;;;;;6.60;1.77;;;;;;;;;;5416884;26;19999;-45
2024/04/11 13:38:17;;;;;;;15.43;2.10;;;;;;;;;;5417094;26;20415;-45
2024/04/11 13:43:42;;;;;;;13.20;1.85;;;;;;;;;;5416122;26;20022;-43
2024/04/11 13:46:09;;;;;;;9.82;1.67;;;;;;;;;;5413311;26;20453;-45
2024/04/11 13:48:49;;;;;;;7.10;1.77;;;;;;;;;;5415803;26;20004;-44
2024/04/11 13:51:16;;;;;;;7.68;1.73;;;;;;;;;;5416056;26;20080;-44
2024/04/11 13:53:44;;;;;;;8.05;1.48;;;;;;;;;;5416148;26;20004;-43
2024/04/11 13:56:14;;;;;;;6.70;1.80;;;;;;;;;;5416534;26;20004;-45
2024/04/11 13:58:48;;;;;;;15.25;2.05;;;;;;;;;;5416775;26;20031;-44
2024/04/11 14:02:09;;;;;;;9.38;1.90;;;;;;;;;;5385336;26;20451;-45
2024/04/11 14:04:15;;;;;;;5.22;1.70;;;;;;;;;;5391802;26;20003;-45
2024/04/11 14:09:18;;;;;;;11.80;2.10;;;;;;;;;;5395141;26;20036;-46
2024/04/11 14:11:46;;;;;;;8.05;1.42;;;;;;;;;;5415929;26;20012;-46
2024/04/11 14:14:18;;;;;;;10.13;1.80;;;;;;;;;;5415471;26;20362;-45
2024/04/11 14:16:56;;;;;;;5.15;1.77;;;;;;;;;;5415630;26;20453;-46
2024/04/11 14:19:38;;;;;;;6.60;1.77;;;;;;;;;;5415564;26;20015;-45
2024/04/11 14:22:49;;;;;;;7.22;1.50;;;;;;;;;;5415639;26;20041;-46
2024/04/11 14:27:38;;;;;;;5.72;1.40;;;;;;;;;;5415384;26;20019;-45
2024/04/11 14:30:05;;;;;;;4.65;1.60;;;;;;;;;;5414131;26;20353;-46
2024/04/11 14:38:07;;;;;;;6.20;1.60;;;;;;;;;;5412224;26;20026;-45
2024/04/11 14:40:40;;;;;;;9.97;1.73;;;;;;;;;;5415497;26;20000;-45
2024/04/11 14:43:10;;;;;;;4.38;1.40;;;;;;;;;;5415302;26;20093;-45
2024/04/11 14:45:41;;;;;;;6.05;1.20;;;;;;;;;;5411471;26;20363;-46
2024/04/11 14:48:21;;;;;;;6.22;1.30;;;;;;;;;;5383806;26;20460;-46
2024/04/11 14:50:58;;;;;;;5.57;1.48;;;;;;;;;;5380430;26;20015;-45
2024/04/11 14:53:25;;;;;;;5.60;1.27;;;;;;;;;;5380068;26;20035;-45
2024/04/11 14:55:56;;;;;;;9.32;1.30;;;;;;;;;;5380222;26;20000;-45
2024/04/11 14:58:30;;;;;;;8.95;1.33;;;;;;;;;;5379286;26;20016;-45
2024/04/11 15:01:14;;;;;;;6.65;1.38;;;;;;;;;;5380261;26;20000;-45
2024/04/11 15:03:44;;;;;;;8.93;1.55;;;;;;;;;;5398593;26;20468;-46
2024/04/11 15:06:15;;;;;;;7.22;1.40;;;;;;;;;;5415588;26;20011;-42
2024/04/11 15:08:42;;;;;;;8.98;1.40;;;;;;;;;;5416183;26;20004;-39
2024/04/11 15:11:12;;;;;;;9.02;1.40;;;;;;;;;;5415724;26;20003;-38
2024/04/11 15:13:39;;;;;;;8.48;1.55;;;;;;;;;;5415686;26;19999;-39
2024/04/11 15:19:15;;;;;;;13.57;1.67;;;;;;;;;;5337175;26;20003;-36
2024/04/11 15:21:44;;;;;;;7.57;1.80;;;;;;;;;;5414938;26;19996;-38